createdAt,value
2019-02-23T00:00:09.017Z,17.17
2019-02-23T00:02:38.934Z,14.30
2019-02-23T00:05:08.436Z,13.67
2019-02-23T00:07:38.164Z,14.97
2019-02-23T00:10:08.005Z,14.10
2019-02-23T00:12:37.381Z,14.30
2019-02-23T00:15:06.983Z,14.73
2019-02-23T00:17:36.437Z,12.30
2019-02-23T00:20:06.250Z,13.73
2019-02-23T00:22:35.656Z,15.53
2019-02-23T00:25:05.197Z,12.93
2019-02-23T00:27:34.581Z,13.23
2019-02-23T00:30:04.048Z,13.47
2019-02-23T00:32:33.815Z,12.67
2019-02-23T00:35:03.856Z,13.00
2019-02-23T00:37:33.237Z,12.00
2019-02-23T00:40:02.977Z,12.67
2019-02-23T00:42:32.437Z,15.97
2019-02-23T00:45:02.189Z,12.63
2019-02-23T00:47:31.711Z,16.97
2019-02-23T00:50:01.609Z,14.63
2019-02-23T00:52:31.430Z,13.60
2019-02-23T00:55:01.237Z,12.43
2019-02-23T00:57:30.780Z,11.83
2019-02-23T01:00:00.570Z,12.30
2019-02-23T01:02:30.425Z,12.83
2019-02-23T01:05:00.306Z,13.40
2019-02-23T01:07:29.728Z,11.80
2019-02-23T01:09:59.472Z,12.63
2019-02-23T01:12:28.891Z,12.87
2019-02-23T01:14:58.786Z,12.00
2019-02-23T01:17:28.625Z,12.53
2019-02-23T01:19:58.404Z,12.80
2019-02-23T01:22:27.880Z,12.47
2019-02-23T01:24:57.680Z,12.97
2019-02-23T01:27:27.454Z,12.70
2019-02-23T01:29:57.201Z,13.93
2019-02-23T01:32:26.791Z,13.60
2019-02-23T01:34:56.573Z,12.83
2019-02-23T01:37:26.719Z,12.43
2019-02-23T01:39:56.160Z,13.30
2019-02-23T01:42:25.601Z,12.60
2019-02-23T01:44:55.350Z,13.70
2019-02-23T01:47:24.887Z,14.90
2019-02-23T01:49:58.838Z,13.57
2019-02-23T01:52:25.521Z,13.37
2019-02-23T01:54:55.266Z,13.50
2019-02-23T01:57:24.749Z,13.37
2019-02-23T01:59:54.508Z,14.97
2019-02-23T02:02:24.129Z,12.97
2019-02-23T02:04:54.255Z,13.17
2019-02-23T02:07:23.641Z,13.30
2019-02-23T02:09:53.058Z,13.80
2019-02-23T02:12:22.845Z,14.17
2019-02-23T02:14:52.250Z,13.70
2019-02-23T02:17:22.086Z,14.03
2019-02-23T02:19:52.041Z,14.77
2019-02-23T02:22:21.416Z,14.40
2019-02-23T02:24:51.222Z,14.17
2019-02-23T02:27:20.749Z,16.23
2019-02-23T02:29:50.534Z,13.37
2019-02-23T02:32:20.638Z,14.30
2019-02-23T02:34:50.172Z,13.30
2019-02-23T02:37:19.973Z,15.27
2019-02-23T02:39:49.824Z,14.47
2019-02-23T02:42:19.577Z,13.97
2019-02-23T02:44:49.361Z,16.03
2019-02-23T02:47:19.136Z,14.40
2019-02-23T02:49:48.830Z,17.87
2019-02-23T02:52:18.743Z,15.83
2019-02-23T02:54:48.768Z,15.20
2019-02-23T02:57:18.593Z,17.37
2019-02-23T02:59:48.070Z,15.87
2019-02-23T03:02:17.790Z,15.03
2019-02-23T03:04:47.297Z,15.27
2019-02-23T03:07:16.690Z,14.40
2019-02-23T03:09:46.513Z,14.67
2019-02-23T03:12:16.641Z,14.27
2019-02-23T03:14:46.447Z,16.53
2019-02-23T03:17:15.942Z,20.10
2019-02-23T03:19:45.422Z,15.70
2019-02-23T03:22:14.922Z,16.80
2019-02-23T03:24:44.387Z,16.43
2019-02-23T03:27:14.173Z,15.00
2019-02-23T03:29:43.892Z,15.87
2019-02-23T03:32:13.385Z,16.23
2019-02-23T03:34:43.961Z,16.13
2019-02-23T03:37:13.733Z,15.33
2019-02-23T03:39:43.127Z,18.10
2019-02-23T03:42:12.629Z,17.40
2019-02-23T03:44:44.670Z,17.07
2019-02-23T03:47:14.093Z,16.47
2019-02-23T03:49:45.261Z,16.60
2019-02-23T03:52:15.341Z,16.57
2019-02-23T03:54:45.394Z,19.63
2019-02-23T03:57:16.472Z,17.00
2019-02-23T03:59:46.249Z,16.37
2019-02-23T04:02:15.721Z,19.10
2019-02-23T04:04:45.581Z,21.23
2019-02-23T04:07:15.422Z,18.17
2019-02-23T04:09:45.627Z,17.80
2019-02-23T04:12:16.058Z,18.00
2019-02-23T04:14:45.561Z,17.17
2019-02-23T04:17:15.148Z,17.23
2019-02-23T04:19:44.954Z,17.07
2019-02-23T04:22:14.759Z,18.37
2019-02-23T04:24:44.577Z,18.13
2019-02-23T04:27:14.392Z,21.80
2019-02-23T04:29:46.900Z,17.90
2019-02-23T04:32:14.998Z,17.10
2019-02-23T04:34:44.488Z,17.77
2019-02-23T04:37:14.660Z,19.70
2019-02-23T04:39:44.684Z,18.63
2019-02-23T04:42:14.525Z,21.60
2019-02-23T04:44:44.418Z,17.23
2019-02-23T04:47:13.894Z,18.13
2019-02-23T04:49:46.598Z,17.27
2019-02-23T04:52:16.068Z,18.63
2019-02-23T04:54:45.588Z,19.00
2019-02-23T04:57:14.973Z,19.67
2019-02-23T04:59:44.469Z,21.40
2019-02-23T05:02:14.240Z,18.87
2019-02-23T05:04:43.657Z,19.13
2019-02-23T05:07:13.156Z,19.93
2019-02-23T05:09:43.046Z,18.00
2019-02-23T05:12:12.460Z,17.83
2019-02-23T05:14:41.937Z,20.20
2019-02-23T05:17:11.429Z,18.17
2019-02-23T05:19:40.903Z,17.33
2019-02-23T05:22:10.393Z,18.97
2019-02-23T05:24:39.877Z,16.47
2019-02-23T05:27:09.376Z,18.83
2019-02-23T05:29:38.832Z,16.77
2019-02-23T05:32:08.618Z,19.17
2019-02-23T05:34:38.799Z,17.87
2019-02-23T05:37:08.290Z,19.60
2019-02-23T05:39:38.041Z,16.27
2019-02-23T05:42:09.914Z,19.13
2019-02-23T05:44:39.413Z,19.83
2019-02-23T05:47:08.964Z,17.07
2019-02-23T05:49:38.866Z,19.47
2019-02-23T05:52:08.757Z,17.70
2019-02-23T05:54:38.574Z,17.07
2019-02-23T05:57:08.094Z,18.67
2019-02-23T05:59:38.013Z,16.20
2019-02-23T06:02:07.885Z,17.00
2019-02-23T06:04:38.009Z,16.57
2019-02-23T06:07:07.896Z,16.73
2019-02-23T06:09:37.629Z,19.07
2019-02-23T06:12:07.177Z,16.37
2019-02-23T06:14:36.691Z,17.33
2019-02-23T06:17:06.071Z,16.93
2019-02-23T06:19:35.859Z,15.83
2019-02-23T06:22:05.693Z,18.50
2019-02-23T06:24:36.678Z,16.80
2019-02-23T06:27:06.144Z,15.60
2019-02-23T06:29:36.687Z,17.80
2019-02-23T06:32:07.583Z,18.90
2019-02-23T06:34:37.110Z,16.97
2019-02-23T06:37:06.570Z,16.57
2019-02-23T06:39:36.712Z,19.57
2019-02-23T06:42:07.548Z,16.40
2019-02-23T06:44:37.372Z,16.43
2019-02-23T06:47:06.849Z,18.90
2019-02-23T06:49:36.338Z,17.20
2019-02-23T06:52:05.809Z,16.30
2019-02-23T06:54:35.309Z,18.60
2019-02-23T06:57:05.088Z,16.43
2019-02-23T06:59:34.515Z,17.30
2019-02-23T07:02:04.086Z,16.30
2019-02-23T07:04:33.968Z,17.70
2019-02-23T07:07:03.449Z,17.03
2019-02-23T07:09:33.277Z,18.20
2019-02-23T07:12:03.188Z,18.27
2019-02-23T07:14:33.070Z,17.83
2019-02-23T07:17:05.150Z,16.47
2019-02-23T07:19:35.133Z,16.33
2019-02-23T07:22:14.794Z,16.47
2019-02-23T07:24:35.751Z,17.57
2019-02-23T07:27:06.712Z,15.50
2019-02-23T07:29:36.185Z,14.23
2019-02-23T07:32:06.109Z,15.80
2019-02-23T07:34:36.280Z,16.33
2019-02-23T07:37:05.705Z,20.23
2019-02-23T07:39:36.289Z,14.23
2019-02-23T07:42:05.892Z,14.97
2019-02-23T07:44:35.368Z,14.50
2019-02-23T07:47:05.258Z,16.13
2019-02-23T07:49:35.160Z,15.67
2019-02-23T07:52:05.045Z,15.03
2019-02-23T07:54:34.725Z,15.53
2019-02-23T07:57:04.489Z,15.67
2019-02-23T07:59:34.378Z,14.13
2019-02-23T08:02:04.466Z,14.43
2019-02-23T08:04:34.222Z,15.00
2019-02-23T08:07:03.724Z,14.13
2019-02-23T08:09:33.192Z,14.80
2019-02-23T08:12:04.160Z,14.80
2019-02-23T08:14:33.996Z,13.97
2019-02-23T08:17:03.503Z,14.60
2019-02-23T08:19:33.252Z,14.53
2019-02-23T08:22:02.745Z,18.33
2019-02-23T08:24:32.227Z,15.97
2019-02-23T08:27:01.710Z,15.63
2019-02-23T08:29:31.525Z,14.50
2019-02-23T08:32:01.277Z,14.83
2019-02-23T08:34:30.961Z,16.73
2019-02-23T08:37:00.448Z,16.00
2019-02-23T08:39:32.209Z,16.27
2019-02-23T08:42:01.697Z,15.03
2019-02-23T08:44:31.425Z,15.10
2019-02-23T08:47:00.897Z,14.33
2019-02-23T08:49:30.370Z,15.63
2019-02-23T08:52:00.157Z,14.20
2019-02-23T08:54:29.937Z,12.60
2019-02-23T08:56:59.645Z,14.47
2019-02-23T08:59:31.873Z,14.00
2019-02-23T09:02:01.656Z,13.03
2019-02-23T09:04:31.141Z,13.00
2019-02-23T09:07:00.524Z,14.47
2019-02-23T09:09:30.220Z,12.27
2019-02-23T09:11:59.624Z,13.13
2019-02-23T09:14:29.488Z,13.43
2019-02-23T09:16:59.240Z,13.63
2019-02-23T09:19:28.650Z,13.07
2019-02-23T09:21:58.484Z,12.80
2019-02-23T09:24:28.282Z,14.10
2019-02-23T09:26:58.577Z,16.00
2019-02-23T09:29:28.001Z,12.40
2019-02-23T09:31:57.397Z,11.20
2019-02-23T09:34:26.853Z,11.77
2019-02-23T09:36:56.329Z,13.63
2019-02-23T09:39:25.798Z,15.20
2019-02-23T09:41:55.566Z,12.13
2019-02-23T09:44:25.025Z,12.20
2019-02-23T09:46:54.484Z,11.50
2019-02-23T09:49:24.149Z,11.03
2019-02-23T09:51:53.565Z,12.23
2019-02-23T09:54:23.350Z,11.87
2019-02-23T09:56:52.884Z,12.57
2019-02-23T09:59:22.563Z,9.90
2019-02-23T10:01:52.360Z,12.07
2019-02-23T10:04:21.766Z,10.80
2019-02-23T10:06:51.705Z,10.73
2019-02-23T10:09:21.414Z,12.83
2019-02-23T10:11:50.827Z,11.90
2019-02-23T10:14:20.213Z,11.57
2019-02-23T10:16:49.606Z,11.27
2019-02-23T10:19:19.601Z,13.13
2019-02-23T10:21:49.391Z,11.43
2019-02-23T10:24:19.201Z,10.90
2019-02-23T10:26:48.682Z,12.83
2019-02-23T10:29:18.836Z,11.07
2019-02-23T10:31:48.284Z,12.47
2019-02-23T10:34:17.697Z,10.67
2019-02-23T10:36:47.529Z,11.80
2019-02-23T10:39:16.946Z,10.73
2019-02-23T10:41:46.471Z,10.20
2019-02-23T10:44:15.873Z,10.57
2019-02-23T10:46:45.281Z,10.83
2019-02-23T10:49:15.053Z,10.13
2019-02-23T10:51:44.724Z,9.67
2019-02-23T10:54:14.157Z,10.60
2019-02-23T10:56:45.761Z,9.60
2019-02-23T10:59:15.268Z,10.27
2019-02-23T11:01:44.688Z,10.50
2019-02-23T11:04:14.176Z,9.90
2019-02-23T11:06:43.768Z,9.83
2019-02-23T11:09:18.892Z,9.97
2019-02-23T11:11:48.539Z,9.33
2019-02-23T11:14:18.122Z,9.07
2019-02-23T11:16:47.907Z,10.03
2019-02-23T11:19:17.820Z,9.50
2019-02-23T11:21:47.239Z,8.63
2019-02-23T11:24:18.318Z,9.20
2019-02-23T11:26:48.000Z,9.33
2019-02-23T11:29:17.409Z,8.77
2019-02-23T11:31:47.352Z,8.87
2019-02-23T11:34:16.737Z,9.37
2019-02-23T11:36:46.251Z,8.57
2019-02-23T11:39:15.928Z,8.47
2019-02-23T11:41:45.342Z,10.50
2019-02-23T11:44:14.795Z,9.57
2019-02-23T11:46:59.215Z,8.63
2019-02-23T11:49:16.071Z,8.47
2019-02-23T11:51:45.564Z,8.40
2019-02-23T11:54:14.985Z,8.50
2019-02-23T11:56:44.481Z,9.03
2019-02-23T11:59:13.957Z,10.27
2019-02-23T12:01:43.333Z,8.97
2019-02-23T12:04:13.137Z,8.77
2019-02-23T12:06:42.600Z,9.27
2019-02-23T12:09:12.001Z,8.60
2019-02-23T12:11:44.805Z,8.80
2019-02-23T12:14:14.305Z,9.07
2019-02-23T12:17:04.276Z,8.80
2019-02-23T12:19:33.688Z,8.70
2019-02-23T12:22:12.054Z,8.63
2019-02-23T12:24:37.420Z,9.07
2019-02-23T12:27:07.370Z,9.00
2019-02-23T12:29:37.662Z,9.20
2019-02-23T12:32:07.365Z,8.20
2019-02-23T12:34:36.880Z,8.37
2019-02-23T12:37:06.725Z,8.33
2019-02-23T12:39:36.919Z,8.10
2019-02-23T12:42:06.764Z,8.13
2019-02-23T12:44:36.245Z,8.23
2019-02-23T12:47:05.756Z,8.83
2019-02-23T12:49:35.284Z,8.73
2019-02-23T12:52:04.684Z,8.60
2019-02-23T12:54:34.201Z,8.83
2019-02-23T12:57:03.587Z,8.37
2019-02-23T12:59:33.374Z,8.77
2019-02-23T13:02:02.855Z,8.33
2019-02-23T13:04:32.734Z,8.23
2019-02-23T13:07:02.452Z,8.63
2019-02-23T13:09:34.669Z,7.90
2019-02-23T13:12:11.377Z,8.30
2019-02-23T13:15:05.841Z,8.63
2019-02-23T13:18:10.932Z,8.07
2019-02-23T13:21:19.369Z,8.17
2019-02-23T13:24:29.871Z,8.60
2019-02-23T13:27:32.684Z,8.50
2019-02-23T13:30:30.642Z,8.13
2019-02-23T13:33:49.198Z,8.00
2019-02-23T13:37:03.566Z,8.03
2019-02-23T13:40:04.396Z,8.37
2019-02-23T13:43:26.037Z,8.17
2019-02-23T13:46:23.565Z,7.47
2019-02-23T13:49:43.242Z,8.53
2019-02-23T13:52:47.566Z,7.87
2019-02-23T13:56:02.055Z,8.27
2019-02-23T13:58:55.857Z,8.13
2019-02-23T14:01:35.973Z,8.20
2019-02-23T14:04:52.297Z,8.80
2019-02-23T14:07:46.461Z,8.23
2019-02-23T14:10:56.006Z,7.90
2019-02-23T14:14:00.399Z,8.60
2019-02-23T14:17:01.672Z,8.13
2019-02-23T14:20:04.121Z,8.20
2019-02-23T14:23:09.025Z,8.23
2019-02-23T14:26:14.521Z,7.43
2019-02-23T14:29:09.804Z,7.67
2019-02-23T14:32:38.302Z,7.97
2019-02-23T14:35:32.107Z,8.60
2019-02-23T14:38:32.913Z,8.50
2019-02-23T14:41:25.313Z,8.47
2019-02-23T14:44:23.477Z,7.93
2019-02-23T14:47:35.685Z,7.93
2019-02-23T14:50:57.989Z,8.20
2019-02-23T14:53:52.094Z,7.97
2019-02-23T14:56:50.284Z,8.10
2019-02-23T14:59:57.312Z,8.30
2019-02-23T15:03:07.694Z,8.23
2019-02-23T15:06:27.392Z,8.23
2019-02-23T15:09:26.522Z,7.80
2019-02-23T15:12:29.728Z,8.10
2019-02-23T15:15:21.520Z,8.00
2019-02-23T15:18:13.268Z,8.60
2019-02-23T15:21:12.600Z,8.67
2019-02-23T15:24:11.353Z,8.23
2019-02-23T15:27:31.223Z,9.10
2019-02-23T15:30:36.574Z,8.70
2019-02-23T15:33:41.522Z,9.13
2019-02-23T15:36:45.942Z,7.80
2019-02-23T15:40:04.651Z,8.83
2019-02-23T15:43:15.195Z,8.23
2019-02-23T15:46:24.526Z,8.17
2019-02-23T15:49:30.134Z,8.27
2019-02-23T15:52:00.773Z,8.17
2019-02-23T15:54:30.403Z,7.63
2019-02-23T15:57:00.210Z,8.40
2019-02-23T15:59:30.078Z,7.53
2019-02-23T16:02:00.214Z,7.50
2019-02-23T16:04:30.158Z,8.03
2019-02-23T16:07:00.280Z,8.30
2019-02-23T16:09:30.086Z,8.20
2019-02-23T16:11:59.889Z,7.30
2019-02-23T16:14:29.613Z,7.20
2019-02-23T16:16:59.483Z,7.40
2019-02-23T16:19:28.945Z,7.93
2019-02-23T16:21:58.354Z,7.50
2019-02-23T16:24:27.819Z,7.43
2019-02-23T16:26:57.954Z,7.23
2019-02-23T16:29:27.423Z,7.50
2019-02-23T16:31:57.604Z,7.23
2019-02-23T16:34:27.389Z,7.23
2019-02-23T16:36:57.309Z,7.67
2019-02-23T16:39:27.092Z,7.27
2019-02-23T16:41:56.972Z,7.00
2019-02-23T16:44:26.450Z,7.27
2019-02-23T16:46:56.855Z,7.07
2019-02-23T16:49:26.588Z,7.23
2019-02-23T16:51:55.977Z,6.90
2019-02-23T16:54:25.689Z,7.13
2019-02-23T16:56:55.116Z,6.97
2019-02-23T16:59:24.600Z,6.67
2019-02-23T17:01:54.099Z,7.33
2019-02-23T17:04:23.940Z,8.00
2019-02-23T17:06:53.317Z,7.67
2019-02-23T17:09:25.493Z,7.00
2019-02-23T17:11:53.829Z,7.47
2019-02-23T17:14:23.682Z,7.20
2019-02-23T17:16:53.217Z,7.00
2019-02-23T17:19:22.592Z,7.30
2019-02-23T17:21:52.064Z,6.70
2019-02-23T17:24:21.439Z,7.30
2019-02-23T17:26:51.619Z,8.27
2019-02-23T17:29:21.349Z,7.70
2019-02-23T17:31:50.885Z,7.73
2019-02-23T17:34:21.181Z,8.00
2019-02-23T17:36:51.201Z,7.33
2019-02-23T17:39:20.946Z,7.60
2019-02-23T17:41:50.853Z,7.57
2019-02-23T17:44:20.896Z,8.00
2019-02-23T17:46:50.907Z,7.40
2019-02-23T17:49:20.954Z,7.53
2019-02-23T17:51:50.424Z,7.70
2019-02-23T17:54:20.578Z,7.50
2019-02-23T17:56:50.482Z,8.60
2019-02-23T17:59:21.956Z,8.80
2019-02-23T18:01:51.758Z,8.10
2019-02-23T18:04:21.300Z,8.60
2019-02-23T18:06:50.780Z,8.53
2019-02-23T18:09:20.604Z,10.37
2019-02-23T18:11:50.690Z,8.47
2019-02-23T18:14:20.689Z,9.03
2019-02-23T18:16:50.633Z,8.50
2019-02-23T18:19:20.637Z,9.47
2019-02-23T18:21:50.108Z,8.93
2019-02-23T18:24:19.804Z,9.00
2019-02-23T18:26:49.478Z,9.33
2019-02-23T18:29:19.401Z,9.43
2019-02-23T18:31:49.097Z,9.57
2019-02-23T18:34:18.548Z,9.67
2019-02-23T18:36:47.967Z,9.87
2019-02-23T18:39:17.772Z,9.70
2019-02-23T18:41:47.536Z,8.67
2019-02-23T18:44:16.992Z,9.07
2019-02-23T18:46:46.696Z,9.30
2019-02-23T18:49:16.121Z,8.70
2019-02-23T18:51:45.577Z,11.93
2019-02-23T18:54:15.366Z,9.63
2019-02-23T18:56:45.457Z,9.20
2019-02-23T18:59:15.321Z,9.97
2019-02-23T19:01:45.256Z,10.03
2019-02-23T19:04:15.031Z,9.27
2019-02-23T19:06:44.510Z,10.57
2019-02-23T19:09:13.889Z,10.27
2019-02-23T19:11:43.631Z,10.53
2019-02-23T19:14:13.503Z,9.83
2019-02-23T19:16:43.368Z,10.63
2019-02-23T19:19:12.832Z,10.07
2019-02-23T19:21:42.308Z,11.03
2019-02-23T19:24:12.099Z,10.03
2019-02-23T19:26:41.583Z,9.80
2019-02-23T19:29:10.970Z,10.33
2019-02-23T19:31:40.822Z,9.47
2019-02-23T19:34:10.277Z,9.90
2019-02-23T19:36:39.728Z,10.20
2019-02-23T19:39:09.892Z,10.87
2019-02-23T19:41:39.264Z,9.53
2019-02-23T19:44:08.685Z,11.00
2019-02-23T19:46:52.448Z,10.73
2019-02-23T19:49:22.012Z,9.97
2019-02-23T19:51:51.416Z,10.37
2019-02-23T19:54:21.153Z,10.80
2019-02-23T19:56:50.912Z,10.07
2019-02-23T19:59:20.737Z,10.90
2019-02-23T20:01:50.277Z,12.13
2019-02-23T20:04:19.762Z,9.80
2019-02-23T20:06:49.289Z,15.80
2019-02-23T20:09:19.197Z,10.27
2019-02-23T20:11:48.646Z,11.00
2019-02-23T20:14:18.054Z,11.60
2019-02-23T20:16:48.176Z,10.57
2019-02-23T20:19:17.589Z,10.73
2019-02-23T20:21:47.075Z,11.60
2019-02-23T20:24:16.682Z,12.07
2019-02-23T20:26:46.132Z,12.63
2019-02-23T20:29:15.511Z,14.20
2019-02-23T20:31:44.996Z,12.63
2019-02-23T20:34:14.380Z,11.73
2019-02-23T20:36:43.856Z,11.60
2019-02-23T20:39:13.248Z,12.47
2019-02-23T20:41:42.731Z,12.00
2019-02-23T20:44:12.235Z,12.03
2019-02-23T20:46:41.721Z,12.50
2019-02-23T20:49:11.216Z,12.13
2019-02-23T20:51:41.069Z,12.67
2019-02-23T20:54:10.955Z,12.10
2019-02-23T20:56:40.698Z,10.73
2019-02-23T20:59:10.538Z,10.77
2019-02-23T21:01:40.017Z,12.30
2019-02-23T21:04:10.052Z,11.63
2019-02-23T21:06:39.856Z,11.23
2019-02-23T21:09:09.318Z,11.50
2019-02-23T21:11:38.800Z,12.13
2019-02-23T21:14:08.237Z,11.80
2019-02-23T21:16:37.649Z,11.97
2019-02-23T21:19:07.036Z,12.73
2019-02-23T21:21:36.453Z,11.90
2019-02-23T21:24:05.841Z,12.40
2019-02-23T21:26:35.920Z,11.20
2019-02-23T21:29:05.381Z,13.40
2019-02-23T21:31:34.853Z,11.70
2019-02-23T21:34:04.281Z,11.37
2019-02-23T21:36:33.677Z,10.77
2019-02-23T21:39:03.453Z,12.23
2019-02-23T21:41:32.938Z,11.70
2019-02-23T21:44:03.037Z,11.97
2019-02-23T21:46:32.852Z,11.00
2019-02-23T21:49:02.262Z,11.47
2019-02-23T21:51:31.752Z,11.07
2019-02-23T21:54:09.759Z,10.37
2019-02-23T21:56:32.353Z,13.97
2019-02-23T21:59:02.095Z,11.90
2019-02-23T22:01:31.552Z,11.07
2019-02-23T22:04:00.934Z,12.70
2019-02-23T22:06:30.525Z,11.53
2019-02-23T22:09:00.324Z,11.40
2019-02-23T22:11:29.780Z,11.20
2019-02-23T22:13:59.298Z,11.27
2019-02-23T22:16:28.763Z,10.93
2019-02-23T22:18:58.253Z,11.27
2019-02-23T22:21:28.107Z,13.03
2019-02-23T22:23:57.914Z,12.23
2019-02-23T22:26:27.306Z,10.57
2019-02-23T22:28:57.240Z,11.07
2019-02-23T22:31:26.700Z,11.93
2019-02-23T22:33:56.165Z,11.30
2019-02-23T22:36:25.626Z,12.33
2019-02-23T22:38:55.081Z,12.67
2019-02-23T22:41:24.837Z,11.13
2019-02-23T22:43:54.297Z,11.13
2019-02-23T22:46:24.029Z,11.30
2019-02-23T22:48:53.448Z,11.43
2019-02-23T22:51:22.832Z,11.37
2019-02-23T22:53:52.593Z,11.40
2019-02-23T22:56:22.466Z,11.40
2019-02-23T22:58:51.949Z,11.73
2019-02-23T23:01:22.245Z,11.30
2019-02-23T23:03:51.827Z,11.23
2019-02-23T23:06:22.120Z,13.07
2019-02-23T23:08:51.709Z,11.23
2019-02-23T23:11:21.194Z,10.73
2019-02-23T23:13:51.123Z,12.03
2019-02-23T23:16:20.576Z,11.50
2019-02-23T23:18:50.388Z,11.13
2019-02-23T23:21:19.769Z,11.27
2019-02-23T23:23:49.193Z,11.27
2019-02-23T23:26:19.035Z,11.20
2019-02-23T23:28:48.420Z,12.17
2019-02-23T23:31:17.977Z,12.27
2019-02-23T23:33:47.733Z,12.53
2019-02-23T23:36:17.222Z,11.83
2019-02-23T23:38:46.594Z,11.30
2019-02-23T23:41:16.704Z,12.10
2019-02-23T23:43:46.076Z,10.77
2019-02-23T23:46:15.497Z,11.20
2019-02-23T23:48:44.977Z,10.80
2019-02-23T23:51:14.481Z,10.20
2019-02-23T23:53:44.291Z,11.97
2019-02-23T23:56:14.036Z,10.83
2019-02-23T23:58:43.507Z,11.27
